CheckWX is a tool to help pilots better visualize weather data.  It is not intended as a substitute for an official pre-flight weather briefing.

20:26:07 UTC

KRAP METAR
Rapid City Regional Airport
Rapid City, South Dakota, USA
Current

34 mins ago

KRAP 201952Z 36019G29KT 10SM CLR 26/05 A2964 RMK AO2 PK WND 01029/1921 SLP019 T02610050
Observed
Apr-20 @ 19:52 UTC
Wind
  • 360° at 19 KTS
  • Gusting to 29 KTS
Visibility
10 SM
Flight Rules
VFR
Cloud Levels
  • Clear skies
Temperature
26°C / 79°F
Dewpoint
C / 41°F
Humidity
26%
Altimeter
29.64" Hg
Pressure
1003.72 hPa
Previous

2 hours ago

KRAP 201852Z 35016G26KT 10SM CLR 26/04 A2965 RMK AO2 PK WND 35026/1847 SLP023 T02560044
Observed
Apr-20 @ 18:52 UTC
Wind
  • 350° at 16 KTS
  • Gusting to 26 KTS
Visibility
10 SM
Flight Rules
VFR
Cloud Levels
  • Clear skies
Temperature
26°C / 79°F
Dewpoint
C / 39°F
Humidity
24%
Altimeter
29.65" Hg
Pressure
1004.02 hPa
Previous

3 hours ago

KRAP 201752Z 01014KT 10SM CLR 23/05 A2967 RMK AO2 SLP031 T02330050 10239 20056 58003
Observed
Apr-20 @ 17:52 UTC
Wind
  • 010° at 14 KTS
Visibility
10 SM
Flight Rules
VFR
Cloud Levels
  • Clear skies
Temperature
23°C / 73°F
Dewpoint
C / 41°F
Humidity
31%
Altimeter
29.67" Hg
Pressure
1004.72 hPa